Minerva Indiana — 9HA3909 — position and weather

sailwx.info

Track history (hours):
 
Tides and Currents Weather Stations Pressure Air Temp Water Temp Dewpoint Dewpoint Depression Visibility Wind Speed Wind Dir Waves Ship Positions

Minerva Indiana

Last reported at 2017-Dec-30 12:33 UTC. Time now 2018-Jan-18 17:33 UTC.
Position N 01°19' E 103°18'.
Warning: this ship's position is 19 days out of date.

Length 239 m; draft 8.4 m.

Type: Ship. MMSI: 256431000.

Date/timePositionNaut miles runAvg speedWind from/ knotsBaromVisibWave heightAir tempDewpointWater temp
2017-Dec-30 12:33N 01°19' E 103°18'312.6
2017-Dec-30 12:19N 01°17' E 103°20'413.5
2017-Dec-30 12:00N 01°15' E 103°23'612.4
2017-Dec-30 11:30N 01°13' E 103°29'713.0
2017-Dec-30 11:00N 01°11' E 103°35'612.8
2017-Dec-30 10:30N 01°10' E 103°42'611.7
2017-Dec-30 10:00N 01°10' E 103°47'510.5
2017-Dec-30 09:30N 01°12' E 103°52'5 9.6
2017-Dec-30 09:01N 01°15' E 103°56'2 1.5
2017-Dec-30 07:54N 01°15' E 103°55'0 0.2
2017-Dec-30 07:21N 01°15' E 103°55'0 0.2
2017-Dec-30 06:57N 01°15' E 103°55'0 0.1
2017-Dec-30 06:30N 01°15' E 103°55'0 0.1
2017-Dec-30 05:24N 01°15' E 103°55'0 0.1
2017-Dec-30 04:42N 01°15' E 103°55'0 0.2
2017-Dec-30 04:27N 01°15' E 103°55'0 0.0
2017-Dec-30 03:09N 01°15' E 103°55'0 0.1
2017-Dec-30 02:48N 01°15' E 103°55'0 0.0
2017-Dec-30 02:30N 01°15' E 103°55'0 0.0
2017-Dec-30 01:57N 01°15' E 103°55'0 0.0
2017-Dec-30 00:21N 01°15' E 103°55'0 0.1
2017-Dec-29 23:09N 01°15' E 103°55'0 0.0
2017-Dec-29 22:21N 01°15' E 103°55'0 0.0
2017-Dec-29 20:54N 01°15' E 103°55'0 0.0
2017-Dec-29 20:21N 01°15' E 103°55'0 0.0
2017-Dec-29 17:03N 01°15' E 103°55'0 0.0
2017-Dec-29 16:39N 01°15' E 103°55'0 0.0
2017-Dec-29 16:24N 01°15' E 103°55'0 0.1
2017-Dec-29 15:51N 01°15' E 103°55'0 1.2
2017-Dec-29 15:30N 01°15' E 103°54'3 6.3
2017-Dec-29 15:00N 01°16' E 103°57'3 5.3
2017-Dec-29 14:31N 01°16' E 104°00'3 5.6
2017-Dec-29 13:58N 01°16' E 104°03'3 5.7
2017-Dec-29 13:30N 01°17' E 104°06'2 3.2
2017-Dec-29 12:59N 01°19' E 104°05'3 5.5
2017-Dec-29 12:30N 01°21' E 104°03'5 0.1
2017-Dec-27 11:13N 01°25' E 104°00'3 8.8
2017-Dec-27 10:55N 01°22' E 104°02'4 9.8
2017-Dec-27 10:30N 01°20' E 104°05'1 2.1
2017-Dec-27 09:54N 01°19' E 104°06'2 5.4
2017-Dec-27 09:30N 01°18' E 104°08'1 0.1
2017-Dec-26 20:47N 01°19' E 104°09'0 0.0
2017-Dec-26 20:23N 01°19' E 104°09'0 0.0
2017-Dec-26 12:59N 01°19' E 104°09'0 0.0
2017-Dec-26 11:35N 01°19' E 104°09'0 0.0
2017-Dec-25 15:52N 01°18' E 104°09'1 1.6
2017-Dec-25 15:09N 01°18' E 104°10'0 1.3
2017-Dec-25 14:45N 01°19' E 104°10'1 0.0
2017-Dec-24 09:56N 01°19' E 104°10'1 0.8
2017-Dec-24 09:15N 01°19' E 104°10'14 3.4
2017-Dec-24 05:07N 01°14' E 103°57'211.2
2017-Dec-24 04:59N 01°13' E 103°55'510.4
2017-Dec-24 04:30N 01°11' E 103°51'510.0
2017-Dec-24 04:01N 01°09' E 103°47'510.1
2017-Dec-24 03:30N 01°05' E 103°43'510.5
2017-Dec-24 03:00N 01°03' E 103°38'510.3
2017-Dec-24 02:30N 01°06' E 103°34'510.4
2017-Dec-24 01:59N 01°08' E 103°29'510.3
2017-Dec-24 01:30N 01°11' E 103°25'610.3
2017-Dec-24 00:58N 01°14' E 103°20'  
Track history (hours):
 
Tides and Currents Weather Stations Pressure Air Temp Water Temp Dewpoint Dewpoint Depression Visibility Wind Speed Wind Dir Waves Ship Positions

Minerva Indiana

Last reported at 2017-Dec-30 12:33 UTC. Time now 2018-Jan-18 17:33 UTC.
Position N 01°19' E 103°18'.
Warning: this ship's position is 19 days out of date.

Length 239 m; draft 8.4 m.

Type: Ship. MMSI: 256431000.

Date/timePositionNaut miles runAvg speedWind from/ knotsBaromVisibWave heightAir tempDewpointWater temp
2017-Dec-30 12:33N 01°19' E 103°18'312.6
2017-Dec-30 12:19N 01°17' E 103°20'413.5
2017-Dec-30 12:00N 01°15' E 103°23'612.4
2017-Dec-30 11:30N 01°13' E 103°29'713.0
2017-Dec-30 11:00N 01°11' E 103°35'612.8
2017-Dec-30 10:30N 01°10' E 103°42'611.7
2017-Dec-30 10:00N 01°10' E 103°47'510.5
2017-Dec-30 09:30N 01°12' E 103°52'5 9.6
2017-Dec-30 09:01N 01°15' E 103°56'2 1.5
2017-Dec-30 07:54N 01°15' E 103°55'0 0.2
2017-Dec-30 07:21N 01°15' E 103°55'0 0.2
2017-Dec-30 06:57N 01°15' E 103°55'0 0.1
2017-Dec-30 06:30N 01°15' E 103°55'0 0.1
2017-Dec-30 05:24N 01°15' E 103°55'0 0.1
2017-Dec-30 04:42N 01°15' E 103°55'0 0.2
2017-Dec-30 04:27N 01°15' E 103°55'0 0.0
2017-Dec-30 03:09N 01°15' E 103°55'0 0.1
2017-Dec-30 02:48N 01°15' E 103°55'0 0.0
2017-Dec-30 02:30N 01°15' E 103°55'0 0.0
2017-Dec-30 01:57N 01°15' E 103°55'0 0.0
2017-Dec-30 00:21N 01°15' E 103°55'0 0.1
2017-Dec-29 23:09N 01°15' E 103°55'0 0.0
2017-Dec-29 22:21N 01°15' E 103°55'0 0.0
2017-Dec-29 20:54N 01°15' E 103°55'0 0.0
2017-Dec-29 20:21N 01°15' E 103°55'0 0.0
2017-Dec-29 17:03N 01°15' E 103°55'0 0.0
2017-Dec-29 16:39N 01°15' E 103°55'0 0.0
2017-Dec-29 16:24N 01°15' E 103°55'0 0.1
2017-Dec-29 15:51N 01°15' E 103°55'0 1.2
2017-Dec-29 15:30N 01°15' E 103°54'3 6.3
2017-Dec-29 15:00N 01°16' E 103°57'3 5.3
2017-Dec-29 14:31N 01°16' E 104°00'3 5.6
2017-Dec-29 13:58N 01°16' E 104°03'3 5.7
2017-Dec-29 13:30N 01°17' E 104°06'2 3.2
2017-Dec-29 12:59N 01°19' E 104°05'3 5.5
2017-Dec-29 12:30N 01°21' E 104°03'5 0.1
2017-Dec-27 11:13N 01°25' E 104°00'3 8.8
2017-Dec-27 10:55N 01°22' E 104°02'4 9.8
2017-Dec-27 10:30N 01°20' E 104°05'1 2.1
2017-Dec-27 09:54N 01°19' E 104°06'2 5.4
2017-Dec-27 09:30N 01°18' E 104°08'1 0.1
2017-Dec-26 20:47N 01°19' E 104°09'0 0.0
2017-Dec-26 20:23N 01°19' E 104°09'0 0.0
2017-Dec-26 12:59N 01°19' E 104°09'0 0.0
2017-Dec-26 11:35N 01°19' E 104°09'0 0.0
2017-Dec-25 15:52N 01°18' E 104°09'1 1.6
2017-Dec-25 15:09N 01°18' E 104°10'0 1.3
2017-Dec-25 14:45N 01°19' E 104°10'1 0.0
2017-Dec-24 09:56N 01°19' E 104°10'1 0.8
2017-Dec-24 09:15N 01°19' E 104°10'14 3.4
2017-Dec-24 05:07N 01°14' E 103°57'211.2
2017-Dec-24 04:59N 01°13' E 103°55'510.4
2017-Dec-24 04:30N 01°11' E 103°51'510.0
2017-Dec-24 04:01N 01°09' E 103°47'510.1
2017-Dec-24 03:30N 01°05' E 103°43'510.5
2017-Dec-24 03:00N 01°03' E 103°38'510.3
2017-Dec-24 02:30N 01°06' E 103°34'510.4
2017-Dec-24 01:59N 01°08' E 103°29'510.3
2017-Dec-24 01:30N 01°11' E 103°25'610.3
2017-Dec-24 00:58N 01°14' E 103°20'  

Dump ship's entire track history